Time;durP1;ratioP1;P1;durP2;ratioP2;P2;SDS_P1;SDS_P2;PMS_P1;PMS_P2;Temp;Humidity;BMP_temperature;BMP_pressure;BME280_temperature;BME280_humidity;BME280_pressure;Samples;Min_cycle;Max_cycle;Signal;HPM_P1;HPM_P2
2023/01/07 00:01:41;;;;;;;6.27;5.50;;;;;;;;;;5048014;28;20224;-59
2023/01/07 00:04:10;;;;;;;6.33;5.73;;;;;;;;;;5043688;28;20767;-60
2023/01/07 00:06:38;;;;;;;8.67;6.60;;;;;;;;;;5039766;28;20240;-59
2023/01/07 00:09:05;;;;;;;6.50;5.43;;;;;;;;;;5030754;28;20702;-59
2023/01/07 00:11:32;;;;;;;7.03;5.67;;;;;;;;;;5037529;28;20232;-59
2023/01/07 00:13:59;;;;;;;6.17;5.57;;;;;;;;;;5044901;28;20348;-59
2023/01/07 00:16:27;;;;;;;6.57;5.97;;;;;;;;;;5041915;28;20319;-57
2023/01/07 00:18:55;;;;;;;6.97;6.27;;;;;;;;;;5048239;28;20725;-59
2023/01/07 00:21:22;;;;;;;7.23;5.43;;;;;;;;;;5044291;28;20230;-59
2023/01/07 00:23:49;;;;;;;6.93;6.23;;;;;;;;;;5036685;28;20239;-58
2023/01/07 00:26:16;;;;;;;8.30;6.70;;;;;;;;;;5043638;28;20627;-58
2023/01/07 00:28:44;;;;;;;6.47;5.87;;;;;;;;;;5046199;28;20240;-58
2023/01/07 00:31:12;;;;;;;6.90;6.17;;;;;;;;;;5049724;28;20224;-59
2023/01/07 00:33:46;;;;;;;5.73;5.23;;;;;;;;;;5051607;28;20255;-59
2023/01/07 00:36:14;;;;;;;6.13;5.53;;;;;;;;;;5050548;28;20239;-58
2023/01/07 00:38:40;;;;;;;8.47;5.40;;;;;;;;;;5048430;28;21126;-58
2023/01/07 00:41:07;;;;;;;5.27;4.83;;;;;;;;;;5045340;28;20320;-59
2023/01/07 00:43:33;;;;;;;5.87;5.33;;;;;;;;;;5042067;28;20263;-58
2023/01/07 00:45:59;;;;;;;6.87;5.13;;;;;;;;;;5045172;28;20235;-58
2023/01/07 00:48:26;;;;;;;5.30;4.90;;;;;;;;;;5044407;28;20248;-59
2023/01/07 00:50:53;;;;;;;5.40;4.90;;;;;;;;;;5046046;28;20713;-58
2023/01/07 00:53:20;;;;;;;8.63;5.70;;;;;;;;;;5037566;28;20318;-58
2023/01/07 00:55:47;;;;;;;5.00;4.60;;;;;;;;;;5035018;28;20232;-58
2023/01/07 00:58:14;;;;;;;5.93;4.93;;;;;;;;;;5035240;28;20244;-59
2023/01/07 01:00:40;;;;;;;6.97;6.00;;;;;;;;;;5044086;28;20238;-59
2023/01/07 01:03:07;;;;;;;5.40;4.87;;;;;;;;;;5044384;28;20318;-59
2023/01/07 01:05:34;;;;;;;5.57;5.03;;;;;;;;;;5044581;28;20235;-60
2023/01/07 01:08:00;;;;;;;6.43;5.37;;;;;;;;;;5043437;28;20240;-59
2023/01/07 01:10:28;;;;;;;6.17;4.73;;;;;;;;;;5044595;28;20234;-59
2023/01/07 01:12:54;;;;;;;5.63;5.13;;;;;;;;;;5036797;28;20243;-58
2023/01/07 01:15:20;;;;;;;6.43;5.60;;;;;;;;;;5035709;28;20231;-59
2023/01/07 01:17:47;;;;;;;5.87;5.23;;;;;;;;;;5040097;28;20307;-59
2023/01/07 01:20:14;;;;;;;5.20;4.80;;;;;;;;;;5035878;28;20248;-59
2023/01/07 01:22:41;;;;;;;5.17;4.67;;;;;;;;;;5035594;28;20263;-58
2023/01/07 01:25:08;;;;;;;5.03;4.17;;;;;;;;;;5034489;28;20547;-59
2023/01/07 01:27:36;;;;;;;5.03;4.60;;;;;;;;;;5022866;28;20615;-58
2023/01/07 01:30:03;;;;;;;6.37;5.33;;;;;;;;;;5022632;28;20278;-58
2023/01/07 01:32:29;;;;;;;5.80;5.07;;;;;;;;;;5024672;28;20235;-58
2023/01/07 01:34:56;;;;;;;5.63;4.40;;;;;;;;;;5021389;28;20286;-59
2023/01/07 01:37:22;;;;;;;6.57;4.93;;;;;;;;;;5036207;28;20319;-59
2023/01/07 01:39:49;;;;;;;5.27;4.07;;;;;;;;;;5030217;28;20239;-59
2023/01/07 01:42:15;;;;;;;4.80;4.33;;;;;;;;;;5032425;28;20336;-58
2023/01/07 01:44:48;;;;;;;6.03;4.30;;;;;;;;;;5039011;28;20239;-59
2023/01/07 01:47:16;;;;;;;5.23;4.47;;;;;;;;;;5026495;28;20399;-59
2023/01/07 01:49:45;;;;;;;5.17;3.73;;;;;;;;;;5038379;28;20940;-58
2023/01/07 01:52:13;;;;;;;6.67;4.60;;;;;;;;;;5052358;22;20793;-59
2023/01/07 01:54:39;;;;;;;5.80;4.67;;;;;;;;;;5055791;28;20263;-58
2023/01/07 01:57:06;;;;;;;4.63;4.23;;;;;;;;;;5034281;28;20982;-58
2023/01/07 01:59:34;;;;;;;4.90;4.37;;;;;;;;;;5055043;28;20236;-58
2023/01/07 02:02:02;;;;;;;4.73;4.07;;;;;;;;;;5057388;28;20267;-58
2023/01/07 02:04:30;;;;;;;4.80;4.40;;;;;;;;;;5041878;28;20338;-59
2023/01/07 02:06:59;;;;;;;6.00;5.40;;;;;;;;;;5038017;28;20266;-59
2023/01/07 02:09:25;;;;;;;4.87;4.37;;;;;;;;;;5040377;28;20227;-60
2023/01/07 02:11:56;;;;;;;5.70;4.20;;;;;;;;;;5040884;28;20290;-60
2023/01/07 02:14:30;;;;;;;5.23;4.73;;;;;;;;;;5057681;28;20310;-60
2023/01/07 02:16:59;;;;;;;4.97;4.57;;;;;;;;;;5049608;28;20536;-59
2023/01/07 02:19:47;;;;;;;6.07;5.47;;;;;;;;;;5048329;28;20804;-59
2023/01/07 02:22:20;;;;;;;4.30;3.93;;;;;;;;;;5038732;28;20238;-60
2023/01/07 02:24:59;;;;;;;4.93;4.30;;;;;;;;;;5048565;28;20252;-59
2023/01/07 02:27:31;;;;;;;4.53;3.67;;;;;;;;;;5051320;28;20233;-59
2023/01/07 02:30:17;;;;;;;4.43;4.03;;;;;;;;;;5052469;28;20242;-59
2023/01/07 02:32:53;;;;;;;4.73;4.33;;;;;;;;;;5047759;28;20231;-58
2023/01/07 02:35:28;;;;;;;3.90;3.50;;;;;;;;;;5050419;28;20767;-59
2023/01/07 02:38:00;;;;;;;5.10;4.17;;;;;;;;;;5056077;28;20312;-58
2023/01/07 02:40:29;;;;;;;5.30;4.33;;;;;;;;;;5056069;28;20247;-59
2023/01/07 02:43:02;;;;;;;4.90;4.43;;;;;;;;;;5061176;28;20651;-58
2023/01/07 02:45:29;;;;;;;6.77;4.47;;;;;;;;;;5033950;28;20770;-59
2023/01/07 02:47:58;;;;;;;5.37;4.87;;;;;;;;;;5038089;28;20701;-58
2023/01/07 02:50:24;;;;;;;4.47;4.07;;;;;;;;;;5067499;28;20326;-59
2023/01/07 02:52:51;;;;;;;5.00;4.53;;;;;;;;;;5036494;28;20278;-60
2023/01/07 02:55:18;;;;;;;5.13;4.33;;;;;;;;;;5045767;28;20231;-58
2023/01/07 02:58:08;;;;;;;5.70;4.83;;;;;;;;;;5043317;28;20240;-62
2023/01/07 03:00:42;;;;;;;6.33;4.80;;;;;;;;;;5034294;28;20244;-59
2023/01/07 03:03:14;;;;;;;4.57;4.17;;;;;;;;;;5038551;28;20235;-58
2023/01/07 03:05:46;;;;;;;4.47;4.17;;;;;;;;;;5054495;28;20896;-59
2023/01/07 03:08:23;;;;;;;6.30;4.27;;;;;;;;;;5040703;28;20251;-58
2023/01/07 03:10:53;;;;;;;4.13;3.80;;;;;;;;;;5069878;28;20226;-58
2023/01/07 03:13:20;;;;;;;4.73;4.30;;;;;;;;;;5048129;28;20315;-59
2023/01/07 03:15:51;;;;;;;6.27;4.43;;;;;;;;;;5038642;28;20232;-58
2023/01/07 03:18:19;;;;;;;4.83;4.43;;;;;;;;;;5054297;28;20232;-58
2023/01/07 03:20:47;;;;;;;7.40;5.50;;;;;;;;;;5046432;28;20246;-58
2023/01/07 03:23:14;;;;;;;5.53;4.97;;;;;;;;;;5049827;28;20239;-58
2023/01/07 03:25:42;;;;;;;5.70;5.20;;;;;;;;;;5050954;28;20724;-59
2023/01/07 03:28:10;;;;;;;5.83;5.23;;;;;;;;;;5068573;28;20249;-59
2023/01/07 03:30:37;;;;;;;6.87;6.17;;;;;;;;;;5043596;28;20343;-58
2023/01/07 03:33:07;;;;;;;7.37;6.63;;;;;;;;;;5050750;28;20242;-58
2023/01/07 03:35:38;;;;;;;5.93;5.33;;;;;;;;;;5041446;28;20239;-58
2023/01/07 03:38:05;;;;;;;8.90;6.90;;;;;;;;;;5045314;28;20232;-58
2023/01/07 03:40:31;;;;;;;8.33;7.37;;;;;;;;;;5053180;28;20240;-59
2023/01/07 03:42:57;;;;;;;9.00;7.67;;;;;;;;;;5045567;28;20242;-59
2023/01/07 03:45:25;;;;;;;9.20;8.13;;;;;;;;;;5060737;28;20392;-59
2023/01/07 03:47:52;;;;;;;8.77;6.73;;;;;;;;;;5047041;28;20228;-59
2023/01/07 03:50:19;;;;;;;8.80;7.63;;;;;;;;;;5055624;28;20718;-59
2023/01/07 03:52:47;;;;;;;9.07;7.20;;;;;;;;;;5064412;28;20326;-59
2023/01/07 03:55:14;;;;;;;9.10;8.07;;;;;;;;;;5038312;28;20621;-59
2023/01/07 03:57:40;;;;;;;9.53;8.47;;;;;;;;;;5050826;28;20323;-58
2023/01/07 04:00:08;;;;;;;9.30;8.30;;;;;;;;;;5051434;28;20243;-60
2023/01/07 04:02:34;;;;;;;10.60;8.93;;;;;;;;;;5044367;28;20236;-59
2023/01/07 04:05:01;;;;;;;10.20;8.83;;;;;;;;;;5042834;28;20319;-58
2023/01/07 04:07:27;;;;;;;10.77;9.67;;;;;;;;;;5037985;28;20243;-59
2023/01/07 04:09:55;;;;;;;9.93;8.93;;;;;;;;;;5042127;28;20232;-60
2023/01/07 04:12:21;;;;;;;9.07;8.17;;;;;;;;;;5045261;28;20235;-59
2023/01/07 04:14:47;;;;;;;10.63;9.23;;;;;;;;;;5051040;28;20239;-59
2023/01/07 04:17:14;;;;;;;13.13;9.70;;;;;;;;;;5043760;28;20275;-58
2023/01/07 04:19:40;;;;;;;9.63;8.63;;;;;;;;;;5042073;28;20698;-59
2023/01/07 04:22:07;;;;;;;10.20;9.20;;;;;;;;;;5047005;28;20235;-58
2023/01/07 04:24:33;;;;;;;10.37;8.20;;;;;;;;;;5046258;28;20707;-58
2023/01/07 04:27:01;;;;;;;10.57;8.83;;;;;;;;;;5044874;28;20235;-59
2023/01/07 04:29:27;;;;;;;12.17;9.57;;;;;;;;;;5048631;28;20715;-59
2023/01/07 04:31:54;;;;;;;12.20;9.97;;;;;;;;;;5050765;28;20231;-58
2023/01/07 04:34:20;;;;;;;9.93;8.93;;;;;;;;;;5045102;28;20638;-58
2023/01/07 04:36:47;;;;;;;11.13;9.47;;;;;;;;;;5047134;28;20721;-59
2023/01/07 04:39:13;;;;;;;10.97;9.77;;;;;;;;;;5046871;28;20232;-58
2023/01/07 04:41:40;;;;;;;10.33;9.23;;;;;;;;;;5044895;28;20237;-58
2023/01/07 04:44:08;;;;;;;13.97;9.37;;;;;;;;;;5044269;28;20263;-58
2023/01/07 04:46:35;;;;;;;11.13;9.57;;;;;;;;;;5034910;28;20247;-58
2023/01/07 04:49:02;;;;;;;11.40;9.77;;;;;;;;;;5038903;28;20266;-57
2023/01/07 04:51:28;;;;;;;13.23;10.00;;;;;;;;;;5034364;28;20226;-58
2023/01/07 04:53:56;;;;;;;9.23;8.33;;;;;;;;;;5038136;28;20228;-58
2023/01/07 04:56:23;;;;;;;13.00;9.93;;;;;;;;;;5037873;28;20539;-59
2023/01/07 04:58:49;;;;;;;9.80;8.73;;;;;;;;;;5056484;28;20289;-59
2023/01/07 05:01:17;;;;;;;10.90;9.43;;;;;;;;;;5041029;28;20301;-59
2023/01/07 05:03:44;;;;;;;10.97;9.33;;;;;;;;;;5040088;28;20235;-59
2023/01/07 05:06:11;;;;;;;12.23;9.80;;;;;;;;;;5049960;28;20243;-59
2023/01/07 05:08:38;;;;;;;10.40;9.30;;;;;;;;;;5055015;28;20228;-61
2023/01/07 05:11:04;;;;;;;12.43;9.97;;;;;;;;;;5057553;28;20235;-58
2023/01/07 05:13:34;;;;;;;10.37;8.93;;;;;;;;;;5047942;28;20236;-58
2023/01/07 05:16:00;;;;;;;12.07;10.20;;;;;;;;;;5043047;28;20563;-58
2023/01/07 05:18:29;;;;;;;12.20;9.93;;;;;;;;;;5055701;28;20587;-58
2023/01/07 05:20:55;;;;;;;12.93;9.83;;;;;;;;;;5045026;28;20239;-58
2023/01/07 05:23:21;;;;;;;9.17;8.27;;;;;;;;;;5046558;28;20239;-59
2023/01/07 05:25:48;;;;;;;11.30;9.57;;;;;;;;;;5059078;28;20233;-58
2023/01/07 05:28:14;;;;;;;10.80;9.67;;;;;;;;;;5036503;28;20245;-58
2023/01/07 05:30:41;;;;;;;11.03;9.63;;;;;;;;;;5054682;28;20256;-59
2023/01/07 05:33:07;;;;;;;10.97;9.53;;;;;;;;;;5047511;28;20755;-59
2023/01/07 05:35:35;;;;;;;11.63;9.80;;;;;;;;;;5058031;28;20260;-59
2023/01/07 05:38:01;;;;;;;11.00;9.57;;;;;;;;;;5072227;28;20233;-59
2023/01/07 05:40:28;;;;;;;10.83;9.73;;;;;;;;;;5043837;28;20232;-59
2023/01/07 05:42:54;;;;;;;10.20;9.00;;;;;;;;;;5054156;28;20255;-58
2023/01/07 05:45:21;;;;;;;12.23;9.43;;;;;;;;;;5052304;28;20881;-58
2023/01/07 05:47:47;;;;;;;10.50;9.40;;;;;;;;;;5050266;28;20263;-58
2023/01/07 05:50:14;;;;;;;10.97;9.77;;;;;;;;;;5058267;28;20232;-58
2023/01/07 05:52:42;;;;;;;11.67;10.07;;;;;;;;;;5058940;28;20325;-58
2023/01/07 05:55:08;;;;;;;10.80;8.93;;;;;;;;;;5031784;28;20255;-58
2023/01/07 05:57:35;;;;;;;13.40;10.03;;;;;;;;;;5039367;28;20652;-58
2023/01/07 06:00:01;;;;;;;9.67;8.67;;;;;;;;;;5035505;28;20314;-58
2023/01/07 06:02:28;;;;;;;8.20;7.40;;;;;;;;;;5039556;28;20240;-59
2023/01/07 06:04:54;;;;;;;10.80;9.70;;;;;;;;;;5041440;28;20228;-58
2023/01/07 06:07:21;;;;;;;9.57;8.57;;;;;;;;;;5045007;28;20255;-59
2023/01/07 06:09:48;;;;;;;10.80;8.87;;;;;;;;;;5038640;28;20235;-58
2023/01/07 06:12:15;;;;;;;9.47;8.47;;;;;;;;;;5052391;28;20322;-58
2023/01/07 06:14:41;;;;;;;9.90;8.87;;;;;;;;;;5044997;28;20318;-58
2023/01/07 06:17:08;;;;;;;10.67;8.93;;;;;;;;;;5052201;28;20259;-58
2023/01/07 06:19:34;;;;;;;10.10;9.10;;;;;;;;;;5042800;28;20231;-58
2023/01/07 06:22:00;;;;;;;10.20;8.70;;;;;;;;;;5044861;28;20240;-58
2023/01/07 06:24:27;;;;;;;9.57;8.03;;;;;;;;;;5043745;28;20231;-58
2023/01/07 06:26:55;;;;;;;9.83;8.17;;;;;;;;;;5053819;28;20319;-58
2023/01/07 06:29:21;;;;;;;9.20;8.23;;;;;;;;;;5038702;28;20247;-58
2023/01/07 06:31:47;;;;;;;8.27;7.47;;;;;;;;;;5043089;28;20223;-57
2023/01/07 06:34:14;;;;;;;10.70;8.90;;;;;;;;;;5040905;28;20301;-59
2023/01/07 06:36:40;;;;;;;9.03;7.73;;;;;;;;;;5042005;28;20251;-58
2023/01/07 06:39:07;;;;;;;11.73;9.23;;;;;;;;;;5044710;28;20232;-59
2023/01/07 06:41:33;;;;;;;9.50;8.57;;;;;;;;;;5046776;28;20289;-59
2023/01/07 06:44:01;;;;;;;9.10;8.17;;;;;;;;;;5033113;28;20235;-59
2023/01/07 06:46:27;;;;;;;7.93;7.13;;;;;;;;;;5032204;28;20258;-58
2023/01/07 06:48:54;;;;;;;10.87;7.53;;;;;;;;;;5048730;28;20765;-57
2023/01/07 06:51:20;;;;;;;9.10;7.77;;;;;;;;;;5044443;28;20232;-58
2023/01/07 06:53:46;;;;;;;8.13;7.00;;;;;;;;;;5054986;28;20443;-59
2023/01/07 06:56:13;;;;;;;8.13;6.93;;;;;;;;;;5041884;28;20230;-58
2023/01/07 06:58:39;;;;;;;8.53;7.07;;;;;;;;;;5042703;28;20317;-58
2023/01/07 07:01:08;;;;;;;8.17;7.03;;;;;;;;;;5043676;28;20232;-58
2023/01/07 07:03:34;;;;;;;7.87;7.07;;;;;;;;;;5042703;28;20236;-58
2023/01/07 07:06:00;;;;;;;7.03;6.33;;;;;;;;;;5050597;28;20238;-58
2023/01/07 07:08:27;;;;;;;8.17;7.37;;;;;;;;;;5040549;28;20235;-59
2023/01/07 07:10:53;;;;;;;7.80;6.50;;;;;;;;;;5040554;28;20224;-58
2023/01/07 07:13:20;;;;;;;8.97;8.07;;;;;;;;;;5035390;28;20247;-57
2023/01/07 07:15:47;;;;;;;7.23;6.53;;;;;;;;;;5029555;28;20239;-59
2023/01/07 07:18:15;;;;;;;9.90;7.47;;;;;;;;;;5043929;28;20235;-58
2023/01/07 07:20:41;;;;;;;7.40;6.67;;;;;;;;;;5041966;28;20229;-59
2023/01/07 07:23:08;;;;;;;8.17;6.97;;;;;;;;;;5061082;28;20231;-59
2023/01/07 07:25:34;;;;;;;7.33;6.63;;;;;;;;;;5053888;28;20258;-59
2023/01/07 07:28:00;;;;;;;7.37;6.67;;;;;;;;;;5046334;28;20263;-58
2023/01/07 07:30:27;;;;;;;7.00;6.30;;;;;;;;;;5043364;28;20221;-59
2023/01/07 07:32:53;;;;;;;8.60;6.03;;;;;;;;;;5034564;28;20322;-58
2023/01/07 07:35:21;;;;;;;6.10;5.50;;;;;;;;;;5052041;28;20460;-59
2023/01/07 07:37:47;;;;;;;7.97;6.37;;;;;;;;;;5040647;28;20231;-58
2023/01/07 07:40:14;;;;;;;7.43;6.73;;;;;;;;;;5036681;28;20334;-58
2023/01/07 07:42:40;;;;;;;7.27;5.77;;;;;;;;;;5030177;28;20240;-58
2023/01/07 07:45:07;;;;;;;7.27;6.07;;;;;;;;;;5048995;28;20840;-58
2023/01/07 07:47:33;;;;;;;7.40;6.23;;;;;;;;;;5031606;28;20316;-59
2023/01/07 07:50:00;;;;;;;7.03;6.33;;;;;;;;;;5051340;28;20232;-58
2023/01/07 07:52:28;;;;;;;6.43;5.30;;;;;;;;;;5044852;28;20595;-58
2023/01/07 07:54:54;;;;;;;6.67;5.50;;;;;;;;;;5038694;28;20751;-58
2023/01/07 07:57:20;;;;;;;6.30;5.73;;;;;;;;;;5067831;28;20731;-59
2023/01/07 07:59:47;;;;;;;5.93;5.37;;;;;;;;;;5052099;28;20228;-57
2023/01/07 08:02:13;;;;;;;6.43;5.67;;;;;;;;;;5040423;28;20235;-59
2023/01/07 08:04:40;;;;;;;6.47;5.77;;;;;;;;;;5031916;28;20246;-58
2023/01/07 08:07:06;;;;;;;7.77;5.90;;;;;;;;;;5058482;28;20239;-58
2023/01/07 08:09:34;;;;;;;7.50;6.80;;;;;;;;;;5050604;28;20263;-58
2023/01/07 08:12:00;;;;;;;7.23;5.53;;;;;;;;;;5044237;28;20267;-58
2023/01/07 08:14:27;;;;;;;6.77;5.67;;;;;;;;;;5044605;28;20260;-58
2023/01/07 08:16:53;;;;;;;5.73;5.13;;;;;;;;;;5049436;28;20233;-58
2023/01/07 08:19:20;;;;;;;6.50;5.73;;;;;;;;;;5046457;28;20240;-58
2023/01/07 08:21:47;;;;;;;6.07;5.57;;;;;;;;;;5038226;28;20330;-59
2023/01/07 08:24:14;;;;;;;5.50;4.83;;;;;;;;;;5034512;28;20255;-59
2023/01/07 08:26:42;;;;;;;6.27;5.63;;;;;;;;;;5049129;28;20231;-58
2023/01/07 08:29:08;;;;;;;6.13;5.53;;;;;;;;;;5049944;28;20318;-58
2023/01/07 08:31:35;;;;;;;5.47;4.97;;;;;;;;;;5053053;28;20231;-58
2023/01/07 08:34:01;;;;;;;5.90;5.40;;;;;;;;;;5045517;28;20232;-58
2023/01/07 08:36:27;;;;;;;5.70;5.10;;;;;;;;;;5038600;28;20835;-59
2023/01/07 08:38:54;;;;;;;5.23;4.73;;;;;;;;;;5036923;28;20228;-58
2023/01/07 08:41:21;;;;;;;5.37;4.87;;;;;;;;;;5050102;28;20242;-58
2023/01/07 08:43:49;;;;;;;5.83;5.33;;;;;;;;;;5048650;28;20429;-58
2023/01/07 08:46:15;;;;;;;6.50;5.27;;;;;;;;;;5034590;28;20252;-58
2023/01/07 08:48:42;;;;;;;5.13;4.63;;;;;;;;;;5039146;28;20307;-58
2023/01/07 08:51:08;;;;;;;5.70;4.70;;;;;;;;;;5043298;28;20232;-60
2023/01/07 08:53:34;;;;;;;4.63;4.23;;;;;;;;;;5059442;28;20236;-58
2023/01/07 08:56:01;;;;;;;4.73;4.33;;;;;;;;;;5048654;28;20310;-58
2023/01/07 08:58:27;;;;;;;5.80;5.20;;;;;;;;;;5039000;28;20234;-57
2023/01/07 09:01:00;;;;;;;5.30;4.83;;;;;;;;;;5056223;28;20232;-60
2023/01/07 09:03:26;;;;;;;5.50;4.43;;;;;;;;;;5057049;28;20234;-58
2023/01/07 09:05:53;;;;;;;5.33;4.83;;;;;;;;;;5053006;28;20318;-59
2023/01/07 09:08:19;;;;;;;4.43;4.03;;;;;;;;;;5057879;28;20279;-59
2023/01/07 09:10:45;;;;;;;4.33;3.80;;;;;;;;;;5051113;28;20238;-58
2023/01/07 09:13:12;;;;;;;5.13;4.63;;;;;;;;;;5055289;28;20309;-59
2023/01/07 09:15:38;;;;;;;4.40;3.90;;;;;;;;;;5057274;28;20749;-58
2023/01/07 09:18:06;;;;;;;4.57;4.17;;;;;;;;;;5045877;28;20242;-59
2023/01/07 09:20:33;;;;;;;5.80;4.60;;;;;;;;;;5033777;28;20625;-58
2023/01/07 09:22:59;;;;;;;4.80;4.40;;;;;;;;;;5036952;28;20243;-59
2023/01/07 09:25:26;;;;;;;5.13;4.60;;;;;;;;;;5037665;28;20597;-58
2023/01/07 09:27:52;;;;;;;4.43;4.03;;;;;;;;;;5045874;28;20338;-58
2023/01/07 09:30:19;;;;;;;5.00;4.20;;;;;;;;;;5050597;28;20282;-59
2023/01/07 09:32:45;;;;;;;5.17;4.70;;;;;;;;;;5051027;28;20234;-58
2023/01/07 09:35:14;;;;;;;4.30;3.90;;;;;;;;;;5042310;28;20262;-58
2023/01/07 09:37:40;;;;;;;5.33;4.50;;;;;;;;;;5040295;28;20337;-58
2023/01/07 09:40:08;;;;;;;4.63;4.23;;;;;;;;;;5044963;28;20323;-58
2023/01/07 09:42:40;;;;;;;4.33;3.87;;;;;;;;;;5038766;28;20315;-58
2023/01/07 09:45:10;;;;;;;4.20;3.80;;;;;;;;;;5049761;28;20908;-58
2023/01/07 09:47:37;;;;;;;5.40;4.83;;;;;;;;;;5045140;28;20232;-64
2023/01/07 09:50:07;;;;;;;4.27;3.70;;;;;;;;;;5031116;28;20224;-59
2023/01/07 09:52:36;;;;;;;5.00;4.40;;;;;;;;;;5035354;28;20297;-59
2023/01/07 09:55:05;;;;;;;4.47;4.07;;;;;;;;;;5035794;28;20604;-57
2023/01/07 09:57:31;;;;;;;5.43;3.73;;;;;;;;;;5048984;28;20231;-59
2023/01/07 09:59:58;;;;;;;4.03;3.73;;;;;;;;;;5042298;28;20228;-59
2023/01/07 10:02:30;;;;;;;3.60;3.27;;;;;;;;;;5036714;28;20245;-59
2023/01/07 10:04:58;;;;;;;5.33;4.07;;;;;;;;;;5042441;28;20314;-58
2023/01/07 10:07:29;;;;;;;4.73;4.30;;;;;;;;;;5038280;28;20237;-59
2023/01/07 10:10:02;;;;;;;4.27;3.67;;;;;;;;;;5040518;28;20322;-57
2023/01/07 10:12:30;;;;;;;3.67;3.37;;;;;;;;;;5040107;28;20232;-58
2023/01/07 10:15:05;;;;;;;3.83;3.53;;;;;;;;;;5049982;28;20231;-58
2023/01/07 10:17:37;;;;;;;6.30;4.50;;;;;;;;;;5031240;28;20307;-58
2023/01/07 10:20:07;;;;;;;4.13;3.80;;;;;;;;;;5023868;28;21228;-56
2023/01/07 10:22:35;;;;;;;3.47;3.20;;;;;;;;;;5049711;28;20551;-57
2023/01/07 10:25:04;;;;;;;6.77;4.53;;;;;;;;;;5040589;28;20235;-58
2023/01/07 10:27:32;;;;;;;4.33;3.93;;;;;;;;;;5031643;28;20327;-58
2023/01/07 10:30:01;;;;;;;4.13;3.73;;;;;;;;;;5041638;28;20271;-57
2023/01/07 10:32:29;;;;;;;5.00;4.43;;;;;;;;;;5034510;28;20239;-58
2023/01/07 10:35:00;;;;;;;4.07;3.53;;;;;;;;;;5029953;28;20260;-60
2023/01/07 10:37:28;;;;;;;5.30;4.30;;;;;;;;;;5032340;28;20231;-58
2023/01/07 10:39:59;;;;;;;3.83;3.03;;;;;;;;;;5040649;28;20223;-58
2023/01/07 10:42:30;;;;;;;4.50;4.03;;;;;;;;;;5040407;28;20271;-59
2023/01/07 10:45:05;;;;;;;4.50;3.90;;;;;;;;;;5041775;28;20290;-58
2023/01/07 10:47:39;;;;;;;3.83;3.53;;;;;;;;;;5040922;28;20233;-59
2023/01/07 10:50:23;;;;;;;4.50;4.10;;;;;;;;;;5041352;28;20326;-59
2023/01/07 10:52:56;;;;;;;5.57;4.73;;;;;;;;;;5020830;28;20246;-57
2023/01/07 10:55:30;;;;;;;3.70;3.40;;;;;;;;;;5034373;28;20235;-59
2023/01/07 10:57:58;;;;;;;4.00;3.37;;;;;;;;;;5039413;28;20224;-59
2023/01/07 11:00:25;;;;;;;4.97;3.67;;;;;;;;;;5042964;28;20224;-60
2023/01/07 11:02:54;;;;;;;3.33;2.90;;;;;;;;;;5043303;28;20330;-59
2023/01/07 11:05:21;;;;;;;3.03;2.73;;;;;;;;;;5053594;28;20235;-59
2023/01/07 11:07:48;;;;;;;3.77;3.47;;;;;;;;;;5054224;28;21515;-59
2023/01/07 11:10:16;;;;;;;3.30;3.00;;;;;;;;;;5039983;28;20231;-58
2023/01/07 11:12:44;;;;;;;3.93;2.97;;;;;;;;;;5042316;28;20238;-58
2023/01/07 11:15:16;;;;;;;3.20;2.90;;;;;;;;;;5036137;28;20560;-57
2023/01/07 11:17:45;;;;;;;2.43;2.23;;;;;;;;;;5049339;28;20232;-58
2023/01/07 11:20:12;;;;;;;2.30;2.20;;;;;;;;;;5045077;28;20361;-58
2023/01/07 11:22:39;;;;;;;2.90;2.70;;;;;;;;;;5047135;28;20239;-59
2023/01/07 11:25:20;;;;;;;2.93;2.73;;;;;;;;;;5050454;28;20734;-59
2023/01/07 11:27:46;;;;;;;4.53;2.47;;;;;;;;;;5048311;28;20406;-58
2023/01/07 11:30:23;;;;;;;2.40;2.20;;;;;;;;;;5041436;28;20614;-58
2023/01/07 11:32:53;;;;;;;3.37;2.50;;;;;;;;;;5040829;28;20246;-58
2023/01/07 11:35:21;;;;;;;2.83;2.60;;;;;;;;;;5059106;28;20383;-58
2023/01/07 11:37:48;;;;;;;2.70;2.43;;;;;;;;;;5057610;28;20616;-58
2023/01/07 11:40:21;;;;;;;3.03;2.63;;;;;;;;;;5067246;28;20247;-58
2023/01/07 11:42:49;;;;;;;2.60;2.40;;;;;;;;;;5043357;28;20873;-59
2023/01/07 11:45:16;;;;;;;2.30;2.20;;;;;;;;;;5045028;28;20251;-57
2023/01/07 11:47:48;;;;;;;3.60;2.80;;;;;;;;;;5043455;28;20224;-57
2023/01/07 11:50:22;;;;;;;2.30;2.17;;;;;;;;;;5041920;28;20228;-59
2023/01/07 11:52:55;;;;;;;2.40;2.20;;;;;;;;;;5043653;28;20246;-59
2023/01/07 11:55:21;;;;;;;2.27;2.07;;;;;;;;;;5049482;28;20266;-58
2023/01/07 11:57:52;;;;;;;2.67;2.47;;;;;;;;;;5050733;28;20326;-60
2023/01/07 12:00:19;;;;;;;2.90;1.93;;;;;;;;;;5060612;28;20224;-58
2023/01/07 12:02:58;;;;;;;6.13;3.10;;;;;;;;;;5049276;28;20271;-59
2023/01/07 12:05:26;;;;;;;2.30;2.10;;;;;;;;;;5046417;28;20234;-59
2023/01/07 12:07:53;;;;;;;3.17;2.20;;;;;;;;;;5037927;28;20228;-58
2023/01/07 12:10:30;;;;;;;3.43;2.20;;;;;;;;;;5045664;28;20790;-58
2023/01/07 12:12:58;;;;;;;5.50;2.17;;;;;;;;;;5045567;28;20322;-59
2023/01/07 12:15:26;;;;;;;1.93;1.73;;;;;;;;;;5070986;28;20242;-59
2023/01/07 12:18:01;;;;;;;3.90;1.93;;;;;;;;;;5063340;28;20620;-58
2023/01/07 12:20:36;;;;;;;2.20;2.07;;;;;;;;;;5039311;28;20237;-59
2023/01/07 12:23:07;;;;;;;1.57;1.47;;;;;;;;;;5050508;28;20246;-58
2023/01/07 12:25:45;;;;;;;2.00;1.80;;;;;;;;;;5041845;28;20236;-58
2023/01/07 12:28:14;;;;;;;7.60;1.97;;;;;;;;;;5046035;28;20263;-59
2023/01/07 12:30:48;;;;;;;6.73;5.00;;;;;;;;;;5037639;28;20237;-59
2023/01/07 12:33:21;;;;;;;1.90;1.73;;;;;;;;;;5035637;28;20232;-59
2023/01/07 12:35:47;;;;;;;1.67;1.57;;;;;;;;;;5044940;28;20319;-59
2023/01/07 12:38:16;;;;;;;1.83;1.73;;;;;;;;;;5062892;28;20265;-58
2023/01/07 12:40:45;;;;;;;1.77;1.67;;;;;;;;;;5065544;28;20631;-60
2023/01/07 12:43:13;;;;;;;3.53;1.67;;;;;;;;;;5045295;28;20250;-58
2023/01/07 12:45:41;;;;;;;4.33;1.67;;;;;;;;;;5055850;28;20230;-59
2023/01/07 12:48:15;;;;;;;4.23;1.90;;;;;;;;;;5057594;28;20663;-59
2023/01/07 12:50:45;;;;;;;2.73;2.00;;;;;;;;;;5063085;28;20672;-58
2023/01/07 12:53:14;;;;;;;2.13;1.93;;;;;;;;;;5057928;28;20239;-59
2023/01/07 12:55:43;;;;;;;2.57;1.50;;;;;;;;;;5065410;28;20223;-58
2023/01/07 12:58:13;;;;;;;2.03;1.70;;;;;;;;;;5052464;28;20258;-58
2023/01/07 13:00:42;;;;;;;1.57;1.47;;;;;;;;;;5057630;28;20242;-59
2023/01/07 13:03:14;;;;;;;2.03;1.63;;;;;;;;;;5056619;28;20318;-59
2023/01/07 13:05:45;;;;;;;5.20;2.50;;;;;;;;;;5060692;28;20231;-59
2023/01/07 13:08:14;;;;;;;9.00;5.87;;;;;;;;;;5057667;28;20713;-59
2023/01/07 13:10:41;;;;;;;2.57;2.37;;;;;;;;;;5061671;28;20266;-58
2023/01/07 13:13:11;;;;;;;4.97;3.80;;;;;;;;;;5062978;28;20271;-58
2023/01/07 13:15:40;;;;;;;3.50;3.20;;;;;;;;;;5059300;28;20235;-59
2023/01/07 13:18:12;;;;;;;2.17;1.97;;;;;;;;;;5065605;28;20231;-58
2023/01/07 13:20:52;;;;;;;4.27;2.63;;;;;;;;;;5051947;28;20231;-57
2023/01/07 13:23:21;;;;;;;2.80;2.53;;;;;;;;;;5055284;28;20693;-58
2023/01/07 13:25:57;;;;;;;1.93;1.83;;;;;;;;;;5061855;28;20230;-58
2023/01/07 13:28:33;;;;;;;2.30;2.10;;;;;;;;;;5059458;28;20237;-58
2023/01/07 13:31:08;;;;;;;1.80;1.70;;;;;;;;;;5055690;28;20235;-59
2023/01/07 13:33:39;;;;;;;1.97;1.87;;;;;;;;;;5056613;28;20238;-59
2023/01/07 13:36:13;;;;;;;7.83;2.23;;;;;;;;;;5061467;28;20376;-57
2023/01/07 13:39:02;;;;;;;2.87;2.63;;;;;;;;;;5063256;28;20812;-58
2023/01/07 13:41:36;;;;;;;3.57;2.50;;;;;;;;;;5049069;28;20722;-58
2023/01/07 13:44:13;;;;;;;2.77;2.10;;;;;;;;;;5052353;28;20710;-58
2023/01/07 13:46:41;;;;;;;3.03;1.83;;;;;;;;;;5059125;28;20318;-59
2023/01/07 13:49:19;;;;;;;3.47;2.10;;;;;;;;;;5053692;28;20763;-58
2023/01/07 13:51:47;;;;;;;2.10;1.80;;;;;;;;;;5044704;28;20776;-57
2023/01/07 13:54:13;;;;;;;3.17;1.97;;;;;;;;;;5062928;28;20236;-58
2023/01/07 13:56:40;;;;;;;1.90;1.80;;;;;;;;;;5054787;28;20231;-58
2023/01/07 13:59:28;;;;;;;2.13;1.93;;;;;;;;;;5058715;28;20358;-57
2023/01/07 14:02:15;;;;;;;1.63;1.53;;;;;;;;;;5054759;28;20230;-57
2023/01/07 14:04:47;;;;;;;2.80;1.97;;;;;;;;;;5039617;28;20220;-59
2023/01/07 14:07:15;;;;;;;1.77;1.67;;;;;;;;;;5042183;28;20326;-58
2023/01/07 14:09:41;;;;;;;2.20;1.47;;;;;;;;;;5053488;28;20879;-58
2023/01/07 14:12:25;;;;;;;1.60;1.50;;;;;;;;;;5057913;28;20239;-57
2023/01/07 14:14:55;;;;;;;1.60;1.50;;;;;;;;;;5061630;28;20245;-59
2023/01/07 14:17:26;;;;;;;2.00;1.80;;;;;;;;;;5056064;28;20244;-58
2023/01/07 14:19:57;;;;;;;1.53;1.43;;;;;;;;;;5047807;28;20659;-57
2023/01/07 14:22:28;;;;;;;1.80;1.70;;;;;;;;;;5060324;28;20266;-58
2023/01/07 14:25:01;;;;;;;2.70;1.80;;;;;;;;;;5052007;28;20227;-58
2023/01/07 14:27:34;;;;;;;2.27;2.07;;;;;;;;;;5057347;28;20235;-58
2023/01/07 14:30:03;;;;;;;2.00;1.80;;;;;;;;;;5047718;28;20611;-58
2023/01/07 14:32:32;;;;;;;2.10;1.90;;;;;;;;;;5065035;28;20583;-59
2023/01/07 14:35:00;;;;;;;1.63;1.53;;;;;;;;;;5049271;28;20243;-60
2023/01/07 14:37:32;;;;;;;2.23;1.90;;;;;;;;;;5059123;28;20231;-58
2023/01/07 14:39:58;;;;;;;2.73;1.97;;;;;;;;;;5061639;28;20703;-57
2023/01/07 14:42:26;;;;;;;2.43;1.77;;;;;;;;;;5061451;28;20231;-57
2023/01/07 14:44:53;;;;;;;2.27;2.00;;;;;;;;;;5064256;28;20231;-57
2023/01/07 14:47:34;;;;;;;1.63;1.20;;;;;;;;;;5058562;28;20239;-58
2023/01/07 14:50:08;;;;;;;3.20;1.90;;;;;;;;;;5044900;28;20319;-58